Time;durP1;ratioP1;P1;durP2;ratioP2;P2;SDS_P1;SDS_P2;PMS_P1;PMS_P2;Temp;Humidity;BMP_temperature;BMP_pressure;BME280_temperature;BME280_humidity;BME280_pressure;Samples;Min_cycle;Max_cycle;Signal;HPM_P1;HPM_P2
2023/04/25 00:00:52;;;;;;;2.00;1.50;;;23.00;76.10;;;;;;6255185;28;89255;-68
2023/04/25 00:03:54;;;;;;;2.60;1.42;;;23.00;76.10;;;;;;6244534;28;89074;-68
2023/04/25 00:06:57;;;;;;;1.55;1.30;;;22.90;76.10;;;;;;6255125;28;89129;-69
2023/04/25 00:09:59;;;;;;;2.95;1.60;;;22.90;76.20;;;;;;6253459;28;89383;-68
2023/04/25 00:13:02;;;;;;;2.53;1.60;;;22.90;76.20;;;;;;6253238;28;88037;-68
2023/04/25 00:16:06;;;;;;;1.90;1.40;;;22.90;76.10;;;;;;6242521;28;89210;-68
2023/04/25 00:19:09;;;;;;;1.85;1.45;;;22.90;77.10;;;;;;6255248;28;88392;-68
2023/04/25 00:22:11;;;;;;;1.63;1.40;;;22.90;76.20;;;;;;6256458;28;89036;-68
2023/04/25 00:25:13;;;;;;;1.88;1.40;;;22.80;76.20;;;;;;6252202;28;89054;-68
2023/04/25 00:28:15;;;;;;;2.17;1.40;;;22.80;76.20;;;;;;6253269;28;89342;-68
2023/04/25 00:31:19;;;;;;;2.10;1.45;;;22.80;76.30;;;;;;6254575;28;89041;-68
2023/04/25 00:34:21;;;;;;;1.92;1.42;;;22.80;76.20;;;;;;6255167;28;88798;-69
2023/04/25 00:37:23;;;;;;;1.50;1.27;;;22.80;76.20;;;;;;6255109;28;89125;-68
2023/04/25 00:40:25;;;;;;;3.00;1.40;;;22.80;76.20;;;;;;6253756;28;89144;-68
2023/04/25 00:43:28;;;;;;;1.55;1.30;;;22.80;76.20;;;;;;6237474;28;89055;-68
2023/04/25 00:46:32;;;;;;;1.75;1.40;;;22.80;76.20;;;;;;6240077;28;89114;-68
2023/04/25 00:49:34;;;;;;;1.92;1.27;;;22.80;76.30;;;;;;6243538;28;88316;-69
2023/04/25 00:52:37;;;;;;;1.88;1.40;;;22.80;76.20;;;;;;6249707;28;89244;-68
2023/04/25 00:55:39;;;;;;;1.42;1.30;;;22.80;76.30;;;;;;6254895;28;89112;-68
2023/04/25 00:58:42;;;;;;;1.45;1.20;;;22.80;76.40;;;;;;6241387;28;89418;-68
2023/04/25 01:01:46;;;;;;;1.67;1.30;;;22.80;76.40;;;;;;6253461;28;89135;-68
2023/04/25 01:04:49;;;;;;;1.50;1.27;;;22.80;76.50;;;;;;6253768;28;89047;-68
2023/04/25 01:07:51;;;;;;;2.17;1.30;;;22.80;76.50;;;;;;6251281;28;88988;-68
2023/04/25 01:10:53;;;;;;;2.40;1.50;;;22.80;77.30;;;;;;6258146;28;87941;-68
2023/04/25 01:13:55;;;;;;;1.67;1.30;;;22.80;76.40;;;;;;6248367;28;90354;-68
2023/04/25 01:17:00;;;;;;;1.50;1.40;;;22.80;76.40;;;;;;6255641;28;88291;-68
2023/04/25 01:20:05;;;;;;;1.50;1.20;;;22.70;76.40;;;;;;6257432;28;88688;-69
2023/04/25 01:23:08;;;;;;;2.22;1.25;;;22.70;76.40;;;;;;6257424;28;87950;-68
2023/04/25 01:26:12;;;;;;;1.38;1.10;;;22.70;76.40;;;;;;6257549;28;89144;-69
2023/04/25 01:29:14;;;;;;;1.65;1.20;;;22.70;76.40;;;;;;6246558;28;88932;-68
2023/04/25 01:32:16;;;;;;;1.15;1.05;;;22.70;76.40;;;;;;6237189;28;89098;-68
2023/04/25 01:35:18;;;;;;;1.20;1.10;;;22.70;76.40;;;;;;6251838;28;89149;-69
2023/04/25 01:38:22;;;;;;;1.20;1.10;;;22.70;76.40;;;;;;6253564;28;89320;-68
2023/04/25 01:41:24;;;;;;;2.13;1.10;;;22.70;76.50;;;;;;6249480;28;89221;-69
2023/04/25 01:44:26;;;;;;;1.40;1.30;;;22.70;76.60;;;;;;6256956;28;87846;-68
2023/04/25 01:47:28;;;;;;;2.13;1.40;;;22.70;76.40;;;;;;6244676;28;89875;-68
2023/04/25 01:50:30;;;;;;;1.40;1.13;;;22.70;76.40;;;;;;6251218;28;88548;-68
2023/04/25 01:53:34;;;;;;;1.73;1.20;;;22.70;76.40;;;;;;6253236;28;89202;-68
2023/04/25 01:56:38;;;;;;;1.30;1.10;;;22.70;76.50;;;;;;6255705;28;89391;-68
2023/04/25 01:59:41;;;;;;;1.30;1.20;;;22.70;76.50;;;;;;6255145;28;90050;-68
2023/04/25 02:02:43;;;;;;;1.45;1.10;;;22.70;76.50;;;;;;6255453;28;89139;-69
2023/04/25 02:05:45;;;;;;;1.40;1.30;;;22.70;76.50;;;;;;6256990;28;90110;-69
2023/04/25 02:08:49;;;;;;;1.67;1.30;;;22.60;76.40;;;;;;6250199;28;89067;-68
2023/04/25 02:11:51;;;;;;;2.63;1.58;;;22.70;76.60;;;;;;6255322;28;89182;-68
2023/04/25 02:14:53;;;;;;;1.30;1.20;;;22.70;76.60;;;;;;6251035;28;88957;-68
2023/04/25 02:17:55;;;;;;;1.70;1.60;;;22.60;77.40;;;;;;6256297;27;88577;-68
2023/04/25 02:21:00;;;;;;;2.00;1.80;;;22.60;76.50;;;;;;6253132;27;88616;-69
2023/04/25 02:24:05;;;;;;;2.22;1.90;;;22.60;76.50;;;;;;6257010;28;88031;-69
2023/04/25 02:27:07;;;;;;;2.28;2.05;;;22.60;76.40;;;;;;6245330;28;88059;-69
2023/04/25 02:30:10;;;;;;;2.22;2.03;;;22.70;76.60;;;;;;6255875;28;90806;-68
2023/04/25 02:33:12;;;;;;;2.30;2.10;;;22.60;76.40;;;;;;6256342;28;89132;-69
2023/04/25 02:36:14;;;;;;;2.50;2.30;;;22.60;76.40;;;;;;6245674;28;89100;-69
2023/04/25 02:39:17;;;;;;;2.60;2.40;;;22.60;76.50;;;;;;6245815;28;89018;-68
2023/04/25 02:42:19;;;;;;;2.65;2.45;;;22.60;76.50;;;;;;6248555;28;89150;-69
2023/04/25 02:45:21;;;;;;;3.13;2.72;;;22.60;76.50;;;;;;6247400;28;89039;-69
2023/04/25 02:48:23;;;;;;;2.70;2.50;;;22.60;76.50;;;;;;6256285;27;89099;-69
2023/04/25 02:51:26;;;;;;;2.78;2.58;;;22.60;76.60;;;;;;6244154;28;88295;-69
2023/04/25 02:54:29;;;;;;;3.85;2.50;;;22.60;76.40;;;;;;6243689;28;89135;-69
2023/04/25 02:57:31;;;;;;;4.13;3.00;;;22.60;76.60;;;;;;6255880;28;89075;-69
2023/04/25 03:00:33;;;;;;;3.97;2.95;;;22.60;76.60;;;;;;6252893;28;90184;-69
2023/04/25 03:03:35;;;;;;;3.35;3.05;;;22.60;76.50;;;;;;6255217;28;89404;-69
2023/04/25 03:06:37;;;;;;;3.63;3.33;;;22.60;76.40;;;;;;6254984;28;87967;-69
2023/04/25 03:09:40;;;;;;;3.67;3.38;;;22.60;76.40;;;;;;6250663;28;89478;-69
2023/04/25 03:12:42;;;;;;;3.85;3.45;;;22.60;76.40;;;;;;6249560;28;89099;-69
2023/04/25 03:15:44;;;;;;;4.20;3.80;;;22.60;76.40;;;;;;6245898;27;89049;-68
2023/04/25 03:18:46;;;;;;;4.07;3.67;;;22.60;76.20;;;;;;6256949;28;89082;-69
2023/04/25 03:21:49;;;;;;;4.10;3.70;;;22.50;76.20;;;;;;6257664;28;87576;-69
2023/04/25 03:24:52;;;;;;;3.85;3.47;;;22.50;76.20;;;;;;6252994;28;89124;-68
2023/04/25 03:27:55;;;;;;;4.13;3.75;;;22.60;76.20;;;;;;6254363;28;89167;-68
2023/04/25 03:30:57;;;;;;;4.32;3.92;;;22.50;76.20;;;;;;6254223;27;89978;-68
2023/04/25 03:33:59;;;;;;;4.15;3.75;;;22.60;76.20;;;;;;6255709;28;89703;-68
2023/04/25 03:37:01;;;;;;;4.80;4.20;;;22.60;76.20;;;;;;6246558;28;89050;-68
2023/04/25 03:40:05;;;;;;;4.60;4.20;;;22.60;76.20;;;;;;6250065;28;89070;-68
2023/04/25 03:43:07;;;;;;;4.47;4.07;;;22.60;76.20;;;;;;6253132;28;89175;-68
2023/04/25 03:46:09;;;;;;;4.82;4.43;;;22.60;76.10;;;;;;6243818;28;89057;-68
2023/04/25 03:49:11;;;;;;;4.97;4.53;;;22.60;76.10;;;;;;6256759;28;89182;-68
2023/04/25 03:52:13;;;;;;;5.13;4.63;;;22.60;75.90;;;;;;6242688;28;88246;-68
2023/04/25 03:55:17;;;;;;;5.00;4.38;;;22.70;75.90;;;;;;6254934;28;87980;-68
2023/04/25 03:58:19;;;;;;;6.85;5.05;;;22.70;75.90;;;;;;6247062;28;89135;-68
2023/04/25 04:01:21;;;;;;;5.40;4.90;;;22.70;75.80;;;;;;6254073;28;90034;-68
2023/04/25 04:04:23;;;;;;;5.63;4.97;;;22.80;76.60;;;;;;6253581;28;89429;-68
2023/04/25 04:07:25;;;;;;;5.55;5.05;;;22.80;76.80;;;;;;6254551;28;89123;-69
2023/04/25 04:10:28;;;;;;;5.82;4.80;;;22.80;76.30;;;;;;6253366;28;89094;-69
2023/04/25 04:13:30;;;;;;;5.95;5.28;;;22.90;76.10;;;;;;6249620;28;90462;-68
2023/04/25 04:16:32;;;;;;;5.63;5.13;;;22.90;76.20;;;;;;6246482;28;89142;-68
2023/04/25 04:19:35;;;;;;;6.05;5.38;;;23.00;75.70;;;;;;6249610;28;89396;-69
2023/04/25 04:22:37;;;;;;;7.10;5.25;;;23.00;75.60;;;;;;6253760;28;88322;-69
2023/04/25 04:25:41;;;;;;;6.00;5.40;;;23.00;75.50;;;;;;6256155;28;89104;-68
2023/04/25 04:28:44;;;;;;;5.43;4.93;;;23.00;75.40;;;;;;6254439;28;89568;-69
2023/04/25 04:31:46;;;;;;;6.25;5.25;;;23.10;75.40;;;;;;6243678;28;89959;-69
2023/04/25 04:34:48;;;;;;;5.05;4.55;;;23.00;75.30;;;;;;6250387;28;89700;-69
2023/04/25 04:37:50;;;;;;;5.40;4.90;;;23.00;75.30;;;;;;6240835;28;89363;-68
2023/04/25 04:40:53;;;;;;;5.63;5.13;;;23.10;75.30;;;;;;6248535;28;89348;-69
2023/04/25 04:43:55;;;;;;;5.75;4.95;;;23.10;75.20;;;;;;6255771;27;89086;-68
2023/04/25 04:46:57;;;;;;;8.15;4.80;;;23.10;75.20;;;;;;6258217;28;88961;-69
2023/04/25 04:50:00;;;;;;;5.70;4.70;;;23.10;75.20;;;;;;6255343;28;89510;-69
2023/04/25 04:53:02;;;;;;;5.53;4.95;;;23.10;75.20;;;;;;6260463;28;88595;-69
2023/04/25 04:56:06;;;;;;;5.30;4.80;;;23.10;75.10;;;;;;6259044;28;89413;-69
2023/04/25 04:59:08;;;;;;;5.40;4.90;;;23.10;75.10;;;;;;6253485;28;88993;-68
2023/04/25 05:02:10;;;;;;;5.35;4.85;;;23.10;75.00;;;;;;6258216;28;90207;-68
2023/04/25 05:05:12;;;;;;;5.30;4.80;;;23.10;75.00;;;;;;6258969;28;89517;-68
2023/04/25 05:08:14;;;;;;;5.20;4.70;;;23.10;75.00;;;;;;6255996;27;89241;-68
2023/04/25 05:11:18;;;;;;;5.20;4.70;;;23.10;75.00;;;;;;6258285;28;89262;-69
2023/04/25 05:14:20;;;;;;;5.18;4.68;;;23.10;74.90;;;;;;6256871;28;87973;-68
2023/04/25 05:17:22;;;;;;;5.20;4.70;;;23.10;74.90;;;;;;6248653;28;89096;-69
2023/04/25 05:20:24;;;;;;;5.22;4.72;;;23.10;74.90;;;;;;6259633;28;89165;-68
2023/04/25 05:23:27;;;;;;;5.43;4.93;;;23.20;75.30;;;;;;6260211;28;87265;-68
2023/04/25 05:26:31;;;;;;;5.20;4.70;;;23.20;74.90;;;;;;6257309;28;89420;-69
2023/04/25 05:29:33;;;;;;;5.82;4.53;;;23.20;74.90;;;;;;6257812;28;88944;-68
2023/04/25 05:32:35;;;;;;;5.68;5.07;;;23.20;74.90;;;;;;6256595;28;90318;-68
2023/04/25 05:35:37;;;;;;;5.50;5.00;;;23.20;74.80;;;;;;6257102;28;89192;-69
2023/04/25 05:38:39;;;;;;;5.10;4.60;;;23.20;74.70;;;;;;6245205;27;89061;-68
2023/04/25 05:41:42;;;;;;;5.00;4.50;;;23.20;74.70;;;;;;6251355;28;89255;-69
2023/04/25 05:44:45;;;;;;;5.07;4.57;;;23.30;74.80;;;;;;6257580;28;88999;-68
2023/04/25 05:47:47;;;;;;;4.70;4.30;;;23.20;74.60;;;;;;6257204;28;87982;-68
2023/04/25 05:50:49;;;;;;;5.45;4.95;;;23.30;74.70;;;;;;6257809;28;89032;-68
2023/04/25 05:53:51;;;;;;;5.10;4.60;;;23.30;74.50;;;;;;6250059;28;87147;-68
2023/04/25 05:56:54;;;;;;;5.35;4.57;;;23.30;74.50;;;;;;6257010;28;89104;-69
2023/04/25 05:59:56;;;;;;;5.00;4.50;;;23.30;74.50;;;;;;6256390;28;89087;-68
2023/04/25 06:02:58;;;;;;;5.05;4.55;;;23.30;74.30;;;;;;6250135;28;90068;-68
2023/04/25 06:06:00;;;;;;;5.25;4.70;;;23.30;74.30;;;;;;6255893;28;89514;-68
2023/04/25 06:09:02;;;;;;;5.15;4.65;;;23.30;74.40;;;;;;6236798;28;88042;-68
2023/04/25 06:12:06;;;;;;;4.57;4.18;;;23.30;75.20;;;;;;6239658;28;88085;-68
2023/04/25 06:15:09;;;;;;;4.68;4.28;;;23.30;74.40;;;;;;6242169;28;88358;-68
2023/04/25 06:18:11;;;;;;;5.07;4.13;;;23.30;74.30;;;;;;6247466;27;87993;-68
2023/04/25 06:21:13;;;;;;;4.70;4.20;;;23.40;74.30;;;;;;6256076;28;89052;-69
2023/04/25 06:24:15;;;;;;;4.45;3.88;;;23.30;74.20;;;;;;6246430;28;89562;-68
2023/04/25 06:27:19;;;;;;;4.55;4.15;;;23.40;74.20;;;;;;6254640;28;90479;-69
2023/04/25 06:30:23;;;;;;;4.65;4.07;;;23.40;74.10;;;;;;6256942;28;88959;-68
2023/04/25 06:33:26;;;;;;;4.45;4.05;;;23.40;74.10;;;;;;6247644;28;90435;-69
2023/04/25 06:36:28;;;;;;;4.60;4.20;;;23.40;74.00;;;;;;6250013;28;88838;-68
2023/04/25 06:39:30;;;;;;;4.75;4.20;;;23.40;73.90;;;;;;6255682;28;89108;-68
2023/04/25 06:42:33;;;;;;;4.30;3.90;;;23.40;73.80;;;;;;6244014;28;89082;-69
2023/04/25 06:45:35;;;;;;;4.40;3.90;;;23.40;73.90;;;;;;6256563;28;89059;-69
2023/04/25 06:48:37;;;;;;;4.15;3.75;;;23.40;73.90;;;;;;6257109;28;88770;-68
2023/04/25 06:51:40;;;;;;;4.05;3.65;;;23.40;74.90;;;;;;6252864;28;89045;-69
2023/04/25 06:54:42;;;;;;;4.18;3.78;;;23.40;74.00;;;;;;6246426;28;87097;-69
2023/04/25 06:57:45;;;;;;;4.20;3.80;;;23.40;74.90;;;;;;6256210;28;89025;-68
2023/04/25 07:00:47;;;;;;;4.40;3.97;;;23.40;74.00;;;;;;6255067;28;88240;-68
2023/04/25 07:03:49;;;;;;;4.30;3.90;;;23.40;74.00;;;;;;6254991;28;90021;-69
2023/04/25 07:06:51;;;;;;;4.57;3.55;;;23.40;74.00;;;;;;6244641;28;89362;-68
2023/04/25 07:09:53;;;;;;;4.30;3.90;;;23.40;74.00;;;;;;6255899;28;89117;-69
2023/04/25 07:12:56;;;;;;;4.15;3.75;;;23.40;73.90;;;;;;6255090;28;87939;-68
2023/04/25 07:15:58;;;;;;;3.80;3.40;;;23.40;74.00;;;;;;6249618;28;89075;-68
2023/04/25 07:19:00;;;;;;;3.92;3.53;;;23.40;74.00;;;;;;6254813;28;89047;-69
2023/04/25 07:22:02;;;;;;;3.95;3.58;;;23.40;74.00;;;;;;6255781;28;88049;-69
2023/04/25 07:25:05;;;;;;;4.13;3.72;;;23.40;74.90;;;;;;6255899;28;88369;-69
2023/04/25 07:28:08;;;;;;;4.03;3.63;;;23.40;73.80;;;;;;6256010;28;89609;-69
2023/04/25 07:31:10;;;;;;;3.80;3.50;;;23.40;73.80;;;;;;6255625;28;88025;-69
2023/04/25 07:34:12;;;;;;;3.70;3.30;;;23.40;73.80;;;;;;6243872;28;88817;-69
2023/04/25 07:37:15;;;;;;;3.72;3.42;;;23.40;73.80;;;;;;6245060;28;89384;-69
2023/04/25 07:40:17;;;;;;;3.67;3.38;;;23.40;73.80;;;;;;6253469;27;89009;-69
2023/04/25 07:43:20;;;;;;;3.80;3.40;;;23.40;73.70;;;;;;6248418;28;89030;-69
2023/04/25 07:46:22;;;;;;;3.83;3.47;;;23.40;73.70;;;;;;6255469;28;89295;-69
2023/04/25 07:49:24;;;;;;;3.55;3.25;;;23.40;73.70;;;;;;6255604;28;89090;-69
2023/04/25 07:52:26;;;;;;;3.22;2.92;;;23.40;73.70;;;;;;6255656;28;89004;-69
2023/04/25 07:55:28;;;;;;;3.47;3.08;;;23.40;73.60;;;;;;6256036;28;88255;-69
2023/04/25 07:58:32;;;;;;;3.30;3.00;;;23.40;73.50;;;;;;6250501;28;89103;-69
2023/04/25 08:01:35;;;;;;;3.78;3.33;;;23.40;73.50;;;;;;6253559;27;89026;-69
2023/04/25 08:04:37;;;;;;;3.40;3.10;;;23.40;73.40;;;;;;6254246;28;90001;-69
2023/04/25 08:07:40;;;;;;;3.42;3.13;;;23.40;73.40;;;;;;6255767;28;88280;-69
2023/04/25 08:10:42;;;;;;;3.38;3.03;;;23.40;73.20;;;;;;6255473;28;89033;-69
2023/04/25 08:13:46;;;;;;;3.05;2.75;;;23.40;73.10;;;;;;6254574;28;89043;-69
2023/04/25 08:16:48;;;;;;;3.22;2.90;;;23.40;72.80;;;;;;6243569;27;89086;-69
2023/04/25 08:19:50;;;;;;;3.15;2.85;;;23.40;72.90;;;;;;6259274;27;89093;-69
2023/04/25 08:22:52;;;;;;;2.90;2.65;;;23.40;72.70;;;;;;6259687;28;88129;-68
2023/04/25 08:25:54;;;;;;;2.72;2.53;;;23.50;72.80;;;;;;6259171;28;87262;-69
2023/04/25 08:28:57;;;;;;;3.20;2.90;;;23.40;72.70;;;;;;6258287;28;89276;-69
2023/04/25 08:31:59;;;;;;;3.22;2.92;;;23.50;72.80;;;;;;6258413;28;89174;-68
2023/04/25 08:35:01;;;;;;;3.00;2.70;;;23.40;72.80;;;;;;6259018;28;88949;-69
2023/04/25 08:38:03;;;;;;;2.80;2.53;;;23.50;72.90;;;;;;6245781;28;89168;-68
2023/04/25 08:41:07;;;;;;;2.88;2.58;;;23.50;72.70;;;;;;6256881;27;89026;-69
2023/04/25 08:44:12;;;;;;;2.85;2.60;;;23.50;72.90;;;;;;6260091;28;89107;-68
2023/04/25 08:47:14;;;;;;;3.00;2.70;;;23.50;72.90;;;;;;6246413;28;89291;-69
2023/04/25 08:50:19;;;;;;;2.78;2.58;;;23.50;72.90;;;;;;6258930;27;87960;-69
2023/04/25 08:53:23;;;;;;;2.88;2.63;;;23.50;72.80;;;;;;6257346;28;89157;-69
2023/04/25 08:56:26;;;;;;;2.88;2.67;;;23.50;73.00;;;;;;6252227;28;88385;-69
2023/04/25 08:59:30;;;;;;;3.20;2.70;;;23.50;73.00;;;;;;6248973;28;87987;-69
2023/04/25 09:02:32;;;;;;;2.80;2.50;;;23.50;73.00;;;;;;6258678;28;89039;-68
2023/04/25 09:05:35;;;;;;;3.08;2.63;;;23.50;73.00;;;;;;6258275;28;90032;-69
2023/04/25 09:08:39;;;;;;;2.97;2.70;;;23.50;73.00;;;;;;6257688;28;89138;-68
2023/04/25 09:11:42;;;;;;;2.53;2.33;;;23.50;72.80;;;;;;6247176;28;88623;-69
2023/04/25 09:15:03;;;;;;;2.47;2.22;;;23.50;72.70;;;;;;6254167;28;89080;-68
2023/04/25 09:18:05;;;;;;;2.53;2.33;;;23.50;72.70;;;;;;6252196;28;89132;-68
2023/04/25 09:21:10;;;;;;;2.40;2.20;;;23.50;73.50;;;;;;6258572;28;89075;-69
2023/04/25 09:24:12;;;;;;;2.60;2.40;;;23.50;72.50;;;;;;6257945;28;88694;-68
2023/04/25 09:27:20;;;;;;;3.40;2.50;;;23.50;72.60;;;;;;6257948;28;88317;-69
2023/04/25 09:30:32;;;;;;;2.75;2.55;;;23.50;72.80;;;;;;6256687;28;89159;-68
2023/04/25 09:33:36;;;;;;;2.65;2.45;;;23.50;72.80;;;;;;6256486;28;89018;-69
2023/04/25 09:36:38;;;;;;;2.28;2.08;;;23.50;72.90;;;;;;6251783;28;90330;-69
2023/04/25 09:39:40;;;;;;;3.22;2.45;;;23.50;72.90;;;;;;6257553;28;90020;-69
2023/04/25 09:42:42;;;;;;;2.40;2.20;;;23.50;73.00;;;;;;6238851;28;89111;-69
2023/04/25 09:45:47;;;;;;;2.40;2.20;;;23.50;73.00;;;;;;6239449;28;89000;-69
2023/04/25 09:48:51;;;;;;;2.50;2.30;;;23.50;73.10;;;;;;6256011;28;88089;-69
2023/04/25 09:51:57;;;;;;;2.90;2.55;;;23.50;73.10;;;;;;6256166;28;89017;-69
2023/04/25 09:54:59;;;;;;;2.53;2.33;;;23.50;73.20;;;;;;6258053;28;89635;-69
2023/04/25 09:58:06;;;;;;;2.10;1.90;;;23.50;73.20;;;;;;6252797;28;86306;-69
2023/04/25 10:01:10;;;;;;;2.70;2.00;;;23.50;73.20;;;;;;6256997;28;89335;-69
2023/04/25 10:04:12;;;;;;;2.33;2.13;;;23.50;73.10;;;;;;6258251;28;89073;-69
2023/04/25 10:07:15;;;;;;;2.42;2.22;;;23.50;73.10;;;;;;6256950;28;89207;-68
2023/04/25 10:10:18;;;;;;;2.40;2.20;;;23.50;73.10;;;;;;6257346;28;89248;-69
2023/04/25 10:13:21;;;;;;;2.47;2.28;;;23.50;73.20;;;;;;6256752;28;89083;-69
2023/04/25 10:16:25;;;;;;;2.30;2.10;;;23.50;73.20;;;;;;6244428;28;90537;-69
2023/04/25 10:19:28;;;;;;;2.15;1.95;;;23.60;73.30;;;;;;6256790;28;87973;-69
2023/04/25 10:22:35;;;;;;;2.80;2.28;;;23.60;73.30;;;;;;6256334;28;88727;-69
2023/04/25 10:25:37;;;;;;;2.75;2.50;;;23.50;73.20;;;;;;6256825;28;89129;-69
2023/04/25 10:28:57;;;;;;;2.13;1.92;;;23.60;73.30;;;;;;6257914;28;88560;-69
2023/04/25 10:32:01;;;;;;;2.42;2.13;;;23.60;74.20;;;;;;6256355;28;89158;-69
2023/04/25 10:35:15;;;;;;;2.75;1.92;;;23.60;73.30;;;;;;6242945;28;89203;-69
2023/04/25 10:38:17;;;;;;;2.20;2.00;;;23.60;73.30;;;;;;6238254;28;90055;-68
2023/04/25 10:41:21;;;;;;;2.20;2.00;;;23.50;73.10;;;;;;6250971;28;89122;-69
2023/04/25 10:44:23;;;;;;;2.20;2.00;;;23.60;73.10;;;;;;6253670;28;89060;-69
2023/04/25 10:47:36;;;;;;;2.05;1.95;;;23.60;73.10;;;;;;6255844;28;89094;-69
2023/04/25 10:50:39;;;;;;;2.67;1.95;;;23.60;73.00;;;;;;6255279;28;89252;-69
2023/04/25 10:53:41;;;;;;;2.25;2.05;;;23.50;72.80;;;;;;6253691;28;89507;-69
2023/04/25 10:56:44;;;;;;;1.95;1.80;;;23.60;72.90;;;;;;6251920;28;87981;-68
2023/04/25 10:59:46;;;;;;;2.15;1.95;;;23.60;73.00;;;;;;6252936;28;88034;-69
2023/04/25 11:02:54;;;;;;;2.20;2.00;;;23.60;73.00;;;;;;6250020;28;89497;-69
2023/04/25 11:05:56;;;;;;;2.00;1.80;;;23.60;73.10;;;;;;6253683;28;88038;-69
2023/04/25 11:08:58;;;;;;;1.67;1.58;;;23.60;73.10;;;;;;6254019;28;90318;-69
2023/04/25 11:12:00;;;;;;;2.10;1.90;;;23.60;73.20;;;;;;6251931;28;89093;-69
2023/04/25 11:15:04;;;;;;;1.88;1.65;;;23.60;73.20;;;;;;6253790;28;88021;-69
2023/04/25 11:18:08;;;;;;;1.98;1.80;;;23.60;73.20;;;;;;6251101;28;89126;-69
2023/04/25 11:21:10;;;;;;;2.03;1.83;;;23.60;73.20;;;;;;6255373;28;89122;-70
2023/04/25 11:24:12;;;;;;;1.80;1.70;;;23.60;73.20;;;;;;6254900;28;88921;-69
2023/04/25 11:27:15;;;;;;;2.10;1.90;;;23.60;73.20;;;;;;6255013;28;89380;-70
2023/04/25 11:30:17;;;;;;;1.98;1.77;;;23.60;73.30;;;;;;6256970;28;88311;-69
2023/04/25 11:33:24;;;;;;;1.80;1.70;;;23.60;73.30;;;;;;6256499;28;88880;-70
2023/04/25 11:36:27;;;;;;;1.70;1.60;;;23.60;73.20;;;;;;6255366;28;89060;-69
2023/04/25 11:39:30;;;;;;;1.77;1.67;;;23.60;73.20;;;;;;6253750;28;90006;-69
2023/04/25 11:42:32;;;;;;;1.70;1.60;;;23.60;73.30;;;;;;6251694;27;89243;-70
2023/04/25 11:45:34;;;;;;;1.95;1.75;;;23.60;73.40;;;;;;6254074;28;88041;-70
2023/04/25 11:48:39;;;;;;;1.75;1.65;;;23.60;73.40;;;;;;6255502;28;89309;-70
2023/04/25 11:51:42;;;;;;;1.98;1.70;;;23.60;73.40;;;;;;6253968;27;89078;-69
2023/04/25 11:54:46;;;;;;;1.90;1.70;;;23.60;73.30;;;;;;6254815;28;90067;-69
2023/04/25 11:57:50;;;;;;;2.00;1.70;;;23.60;73.30;;;;;;6244581;28;89305;-69
2023/04/25 12:00:52;;;;;;;1.60;1.48;;;23.60;73.30;;;;;;6253878;28;88306;-69
2023/04/25 12:03:55;;;;;;;1.80;1.70;;;23.60;73.30;;;;;;6254982;28;89072;-70
2023/04/25 12:06:57;;;;;;;2.33;1.73;;;23.60;73.30;;;;;;6255419;28;88993;-70
2023/04/25 12:09:59;;;;;;;1.63;1.52;;;23.60;73.30;;;;;;6255034;28;90359;-69
2023/04/25 12:13:18;;;;;;;1.58;1.48;;;23.60;73.50;;;;;;6253638;28;89096;-69
2023/04/25 12:16:20;;;;;;;1.92;1.50;;;23.60;73.40;;;;;;6242123;28;89137;-69
2023/04/25 12:19:23;;;;;;;1.80;1.50;;;23.70;73.50;;;;;;6255324;28;89130;-69
2023/04/25 12:22:25;;;;;;;1.95;1.73;;;23.60;73.30;;;;;;6252277;28;89134;-69
2023/04/25 12:25:38;;;;;;;1.67;1.58;;;23.60;73.00;;;;;;6255094;28;89122;-70
2023/04/25 12:28:40;;;;;;;2.17;1.65;;;23.60;73.00;;;;;;6231792;28;90513;-69
2023/04/25 12:31:42;;;;;;;1.70;1.60;;;23.60;72.90;;;;;;6231761;28;88688;-69
2023/04/25 12:34:45;;;;;;;1.83;1.55;;;23.60;72.80;;;;;;6253869;28;89092;-70
2023/04/25 12:37:48;;;;;;;1.60;1.50;;;23.70;72.70;;;;;;6247829;28;89020;-69
2023/04/25 12:40:50;;;;;;;1.50;1.40;;;23.60;72.20;;;;;;6238257;28;90087;-69
2023/04/25 12:43:52;;;;;;;2.00;1.60;;;23.60;72.10;;;;;;6243280;28;89073;-69
2023/04/25 12:46:55;;;;;;;1.67;1.58;;;23.60;72.10;;;;;;6249706;28;89202;-69
2023/04/25 12:49:59;;;;;;;1.40;1.30;;;23.60;72.40;;;;;;6254268;28;88072;-69
2023/04/25 12:53:01;;;;;;;1.92;1.50;;;23.60;72.50;;;;;;6253847;28;88819;-69
2023/04/25 12:56:04;;;;;;;1.63;1.30;;;23.60;72.50;;;;;;6249949;28;89126;-69
2023/04/25 12:59:06;;;;;;;1.70;1.60;;;23.60;72.20;;;;;;6249308;28;89180;-69
2023/04/25 13:02:08;;;;;;;1.63;1.50;;;23.60;72.00;;;;;;6254479;28;88362;-69
2023/04/25 13:05:11;;;;;;;1.65;1.30;;;23.60;72.00;;;;;;6258348;27;89491;-69
2023/04/25 13:08:13;;;;;;;1.63;1.10;;;23.60;72.00;;;;;;6246197;28;89083;-69
2023/04/25 13:11:15;;;;;;;1.40;1.30;;;23.60;71.80;;;;;;6247164;28;90138;-69
2023/04/25 13:14:17;;;;;;;1.50;1.40;;;23.60;72.00;;;;;;6252664;28;90289;-69
2023/04/25 13:17:19;;;;;;;1.30;1.20;;;23.60;72.40;;;;;;6253921;28;89061;-70
2023/04/25 13:20:23;;;;;;;1.30;1.20;;;23.60;72.50;;;;;;6257332;28;89645;-69
2023/04/25 13:23:26;;;;;;;1.40;1.30;;;23.60;72.50;;;;;;6257028;28;88916;-69
2023/04/25 13:26:28;;;;;;;1.63;1.40;;;23.60;72.30;;;;;;6258332;28;89186;-69
2023/04/25 13:29:31;;;;;;;1.52;1.40;;;23.60;72.30;;;;;;6258391;28;89113;-68
2023/04/25 13:32:33;;;;;;;1.50;1.30;;;23.60;72.40;;;;;;6258555;28;88212;-70
2023/04/25 13:35:37;;;;;;;1.38;1.27;;;23.60;72.40;;;;;;6257733;28;89067;-70
2023/04/25 13:38:41;;;;;;;1.30;1.20;;;23.60;72.50;;;;;;6250507;28;87980;-69
2023/04/25 13:41:43;;;;;;;1.30;1.20;;;23.60;72.30;;;;;;6249418;28;90079;-70
2023/04/25 13:44:45;;;;;;;1.40;1.30;;;23.60;72.20;;;;;;6258253;28;89115;-70
2023/04/25 13:47:47;;;;;;;1.30;1.20;;;23.70;72.40;;;;;;6258598;28;88045;-69
2023/04/25 13:50:51;;;;;;;1.83;1.40;;;23.70;72.50;;;;;;6251783;28;89051;-69
2023/04/25 13:53:53;;;;;;;1.30;1.20;;;23.70;72.00;;;;;;6258237;28;89448;-69
2023/04/25 13:56:58;;;;;;;1.52;1.40;;;23.70;72.50;;;;;;6247725;28;87994;-69
2023/04/25 14:00:04;;;;;;;1.30;1.20;;;23.70;72.50;;;;;;6256075;28;89292;-69
2023/04/25 14:03:07;;;;;;;1.20;1.05;;;23.70;72.60;;;;;;6257936;27;88619;-70
2023/04/25 14:06:10;;;;;;;1.30;1.20;;;23.70;72.60;;;;;;6257504;28;89137;-69
2023/04/25 14:09:13;;;;;;;1.40;1.30;;;23.70;73.50;;;;;;6255812;28;89398;-69
2023/04/25 14:12:15;;;;;;;1.40;1.20;;;23.70;72.70;;;;;;6256601;28;89974;-70
2023/04/25 14:15:17;;;;;;;1.20;1.10;;;23.70;72.70;;;;;;6250812;27;88941;-70
2023/04/25 14:18:19;;;;;;;1.45;1.35;;;23.70;72.50;;;;;;6256645;28;89089;-70
2023/04/25 14:21:22;;;;;;;1.10;1.00;;;23.70;72.70;;;;;;6257136;28;89309;-70
2023/04/25 14:24:25;;;;;;;1.20;1.10;;;23.70;72.60;;;;;;6245812;28;89050;-69
2023/04/25 14:27:27;;;;;;;1.33;1.10;;;23.70;72.70;;;;;;6257195;28;89122;-70
2023/04/25 14:30:29;;;;;;;1.67;1.40;;;23.70;72.60;;;;;;6244764;28;89050;-70
2023/04/25 14:33:32;;;;;;;1.20;1.10;;;23.70;72.30;;;;;;6257543;28;88425;-70
2023/04/25 14:36:36;;;;;;;1.20;1.02;;;23.70;72.30;;;;;;6249307;28;89110;-70
2023/04/25 14:39:38;;;;;;;1.30;1.20;;;23.70;72.30;;;;;;6249015;28;89341;-70
2023/04/25 14:42:40;;;;;;;1.20;1.10;;;23.70;72.00;;;;;;6254788;28;90343;-70
2023/04/25 14:45:42;;;;;;;1.30;1.20;;;23.70;72.00;;;;;;6256006;27;89146;-70
2023/04/25 14:48:44;;;;;;;1.15;1.08;;;23.70;72.00;;;;;;6255815;28;87954;-70
2023/04/25 14:51:48;;;;;;;1.20;1.10;;;23.70;71.90;;;;;;6255585;28;89158;-70
2023/04/25 14:54:50;;;;;;;1.15;1.10;;;23.70;72.00;;;;;;6255171;28;89081;-69
2023/04/25 14:57:54;;;;;;;1.38;1.23;;;23.70;71.80;;;;;;6248094;28;89033;-70
2023/04/25 15:00:57;;;;;;;1.25;1.10;;;23.70;71.60;;;;;;6256510;28;89504;-67
2023/04/25 15:03:59;;;;;;;1.20;1.10;;;23.70;71.60;;;;;;6256000;28;87301;-67
2023/04/25 15:07:02;;;;;;;1.20;1.08;;;23.70;71.40;;;;;;6256067;28;89077;-67
2023/04/25 15:10:06;;;;;;;1.38;1.27;;;23.70;71.30;;;;;;6256715;28;89095;-67
2023/04/25 15:13:08;;;;;;;1.10;1.00;;;23.70;71.40;;;;;;6255792;28;89882;-67
2023/04/25 15:16:11;;;;;;;1.30;1.10;;;23.70;71.50;;;;;;6243030;27;89361;-67
2023/04/25 15:19:13;;;;;;;1.30;1.20;;;23.70;71.40;;;;;;6255096;28;89107;-67
2023/04/25 15:22:17;;;;;;;1.30;1.20;;;23.70;71.60;;;;;;6255610;28;89093;-67
2023/04/25 15:25:19;;;;;;;1.20;1.10;;;23.70;71.60;;;;;;6256256;28;89057;-69
2023/04/25 15:28:21;;;;;;;1.30;1.20;;;23.70;71.60;;;;;;6256079;27;89068;-69
2023/04/25 15:31:23;;;;;;;2.35;1.27;;;23.70;71.60;;;;;;6256648;28;88062;-69
2023/04/25 15:34:25;;;;;;;1.13;1.02;;;23.70;71.60;;;;;;6256559;28;88321;-69
2023/04/25 15:37:29;;;;;;;1.20;1.10;;;23.70;71.50;;;;;;6248020;28;88177;-69
2023/04/25 15:40:31;;;;;;;1.20;1.10;;;23.70;71.50;;;;;;6251328;28;89071;-69
2023/04/25 15:43:35;;;;;;;1.27;1.17;;;23.70;71.50;;;;;;6249526;28;93016;-69
2023/04/25 15:46:37;;;;;;;1.20;1.10;;;23.70;71.40;;;;;;6256251;28;89219;-69
2023/04/25 15:49:40;;;;;;;1.20;1.10;;;23.70;71.10;;;;;;6254928;28;89150;-69
2023/04/25 15:52:43;;;;;;;1.23;1.13;;;23.70;71.10;;;;;;6255284;28;87801;-69